Time;durP1;ratioP1;P1;durP2;ratioP2;P2;SDS_P1;SDS_P2;PMS_P1;PMS_P2;Temp;Humidity;BMP_temperature;BMP_pressure;BME280_temperature;BME280_humidity;BME280_pressure;Samples;Min_cycle;Max_cycle;Signal;HPM_P1;HPM_P2
2021/12/21 00:00:12;;;;;;;11.82;5.78;;;16.70;36.80;;;;;;5122325;28;20103;-49
2021/12/21 00:02:48;;;;;;;12.57;5.82;;;16.60;36.80;;;;;;5121673;28;20012;-50
2021/12/21 00:05:19;;;;;;;11.43;5.93;;;16.60;36.90;;;;;;5121857;28;20024;-45
2021/12/21 00:07:46;;;;;;;12.00;5.38;;;16.60;36.90;;;;;;5122529;28;20008;-47
2021/12/21 00:10:13;;;;;;;12.68;5.95;;;16.60;37.00;;;;;;5121955;28;20023;-48
2021/12/21 00:12:48;;;;;;;11.15;5.70;;;16.60;37.00;;;;;;5122800;28;20011;-48
2021/12/21 00:23:37;;;;;;;14.73;5.90;;;16.60;37.10;;;;;;5039070;28;20523;-47
2021/12/21 00:26:08;;;;;;;14.25;6.32;;;16.50;37.10;;;;;;5038228;28;20030;-49
2021/12/21 00:28:41;;;;;;;13.85;6.00;;;16.60;37.10;;;;;;5037832;28;20093;-45
2021/12/21 00:31:07;;;;;;;12.40;6.22;;;16.60;37.20;;;;;;5037257;28;20017;-48
2021/12/21 00:33:33;;;;;;;12.35;6.07;;;16.60;37.30;;;;;;5036758;28;20033;-50
2021/12/21 00:35:59;;;;;;;11.38;5.72;;;16.50;37.30;;;;;;5020350;28;20049;-49
2021/12/21 00:38:26;;;;;;;13.75;6.15;;;16.50;37.30;;;;;;5036595;28;20054;-47
2021/12/21 00:40:52;;;;;;;13.25;6.50;;;16.50;37.30;;;;;;5036570;28;20048;-46
2021/12/21 00:43:19;;;;;;;13.60;7.03;;;16.50;37.30;;;;;;5036333;28;20026;-49
2021/12/21 00:45:46;;;;;;;12.82;6.45;;;16.50;37.30;;;;;;5036999;28;20040;-48
2021/12/21 00:48:12;;;;;;;12.10;6.20;;;16.50;37.30;;;;;;5037490;28;20037;-45
2021/12/21 00:50:38;;;;;;;13.88;5.95;;;16.50;37.40;;;;;;5036799;28;20029;-51
2021/12/21 00:53:05;;;;;;;12.65;6.05;;;16.50;37.40;;;;;;5020332;28;20049;-48
2021/12/21 00:55:32;;;;;;;11.02;5.80;;;16.50;37.50;;;;;;5110962;28;20055;-44
2021/12/21 00:57:58;;;;;;;12.82;6.40;;;16.40;37.50;;;;;;5118074;28;20022;-46
2021/12/21 01:00:24;;;;;;;12.38;6.53;;;16.40;37.50;;;;;;5118228;28;20043;-45
2021/12/21 01:02:50;;;;;;;15.00;6.15;;;16.40;37.60;;;;;;5117570;28;20020;-50
2021/12/21 01:05:36;;;;;;;13.57;6.10;;;16.40;37.60;;;;;;5116866;28;20023;-46
2021/12/21 01:08:04;;;;;;;12.70;6.10;;;16.40;38.10;;;;;;5116923;28;20043;-47
2021/12/21 01:18:14;;;;;;;13.68;6.15;;;16.40;37.60;;;;;;5117324;28;20130;-45
2021/12/21 01:21:27;;;;;;;11.73;6.00;;;16.40;37.70;;;;;;5116807;28;20016;-47
2021/12/21 01:29:27;;;;;;;11.50;6.35;;;16.30;37.70;;;;;;5101985;28;20044;-47
2021/12/21 01:34:54;;;;;;;13.52;6.45;;;16.30;37.80;;;;;;5099532;28;20036;-47
2021/12/21 01:40:15;;;;;;;11.95;6.25;;;16.30;37.80;;;;;;5116599;28;20096;-49
2021/12/21 01:43:04;;;;;;;11.48;5.90;;;16.30;38.10;;;;;;5116773;28;20026;-44
2021/12/21 01:50:59;;;;;;;13.43;7.07;;;16.30;37.80;;;;;;5116147;28;20043;-47
2021/12/21 01:53:31;;;;;;;13.65;6.97;;;16.30;37.80;;;;;;5116195;28;20011;-47
2021/12/21 01:55:57;;;;;;;13.02;7.25;;;16.20;37.70;;;;;;5117037;28;20023;-48
2021/12/21 01:58:23;;;;;;;14.63;6.88;;;16.20;37.80;;;;;;5116853;28;20049;-46
2021/12/21 02:00:49;;;;;;;16.30;7.55;;;16.20;37.80;;;;;;5117830;28;20022;-47
2021/12/21 02:03:16;;;;;;;14.98;7.00;;;16.20;37.80;;;;;;5117860;28;20045;-44
2021/12/21 02:05:42;;;;;;;15.02;7.50;;;16.20;37.80;;;;;;5117824;28;20038;-44
2021/12/21 02:08:08;;;;;;;14.23;7.50;;;16.20;37.70;;;;;;5118276;28;20027;-48
2021/12/21 02:10:34;;;;;;;14.20;7.25;;;16.20;37.70;;;;;;5118578;28;20012;-41
2021/12/21 02:13:00;;;;;;;15.45;7.45;;;16.20;37.70;;;;;;5100705;28;20031;-46
2021/12/21 02:15:26;;;;;;;12.52;7.00;;;16.20;37.70;;;;;;5118917;28;20474;-48
2021/12/21 02:28:48;;;;;;;14.55;6.95;;;16.10;37.70;;;;;;5118747;28;20049;-44
2021/12/21 02:30:48;;;;;;;12.60;6.95;;;16.10;37.70;;;;;;5108058;28;20042;-49
2021/12/21 02:33:14;;;;;;;15.43;7.45;;;16.10;37.60;;;;;;5118230;28;20034;-48
2021/12/21 02:35:41;;;;;;;11.98;6.93;;;16.10;37.60;;;;;;5121943;28;20051;-47
2021/12/21 02:38:07;;;;;;;14.60;7.32;;;16.20;37.60;;;;;;5122215;28;20382;-44
2021/12/21 02:40:35;;;;;;;14.23;6.70;;;16.10;37.60;;;;;;5122053;28;20019;-47
2021/12/21 02:43:01;;;;;;;15.02;7.65;;;16.10;37.60;;;;;;5122473;28;20031;-50
2021/12/21 02:45:27;;;;;;;12.90;6.88;;;16.10;37.60;;;;;;5121602;28;20034;-45
2021/12/21 02:47:53;;;;;;;14.48;6.90;;;16.10;37.50;;;;;;5120799;28;20012;-47
2021/12/21 02:50:19;;;;;;;14.40;8.05;;;16.10;37.50;;;;;;5102188;28;20023;-47
2021/12/21 02:52:46;;;;;;;12.95;6.68;;;16.10;37.50;;;;;;5120360;28;20520;-45
2021/12/21 02:55:12;;;;;;;11.80;6.38;;;16.10;37.50;;;;;;5120852;28;20046;-43
2021/12/21 02:57:39;;;;;;;13.25;6.65;;;16.10;37.40;;;;;;5121568;28;20004;-43
2021/12/21 03:00:06;;;;;;;11.77;6.80;;;16.10;37.50;;;;;;5120519;28;20016;-48
2021/12/21 03:02:32;;;;;;;14.48;7.03;;;16.10;37.40;;;;;;5120656;28;20020;-46
2021/12/21 03:04:59;;;;;;;12.48;6.75;;;16.10;37.50;;;;;;5121078;28;20024;-46
2021/12/21 03:10:11;;;;;;;13.02;6.72;;;16.10;37.40;;;;;;5121372;28;20504;-47
2021/12/21 03:15:25;;;;;;;15.13;7.07;;;16.00;37.60;;;;;;5121454;28;20028;-48
2021/12/21 03:17:51;;;;;;;12.95;6.75;;;16.00;37.70;;;;;;5120897;28;20027;-45
2021/12/21 03:20:17;;;;;;;10.80;6.15;;;16.00;37.70;;;;;;5102967;28;20107;-43
2021/12/21 03:22:43;;;;;;;11.60;6.60;;;16.00;37.70;;;;;;5120711;28;20591;-45
2021/12/21 03:25:10;;;;;;;12.80;6.72;;;16.00;37.80;;;;;;5120991;28;20069;-48
2021/12/21 03:27:36;;;;;;;12.48;6.80;;;16.00;37.60;;;;;;5121688;28;20021;-47
2021/12/21 03:30:03;;;;;;;13.68;6.63;;;16.10;37.60;;;;;;5121302;28;20048;-47
2021/12/21 03:32:30;;;;;;;13.40;6.65;;;16.10;37.50;;;;;;5120058;28;20564;-45
2021/12/21 03:34:56;;;;;;;13.02;6.82;;;16.10;37.30;;;;;;5120047;28;20019;-45
2021/12/21 03:37:22;;;;;;;12.00;6.72;;;16.20;38.00;;;;;;5120016;28;20033;-45
2021/12/21 03:39:51;;;;;;;11.98;6.43;;;16.20;37.60;;;;;;5119748;28;20738;-50
2021/12/21 03:42:17;;;;;;;12.23;6.95;;;16.30;37.40;;;;;;5120032;28;20031;-47
2021/12/21 03:44:44;;;;;;;13.10;6.60;;;16.50;37.10;;;;;;5119387;28;20079;-44
2021/12/21 03:47:11;;;;;;;11.02;6.07;;;16.60;36.70;;;;;;5119737;28;20016;-47
2021/12/21 03:52:11;;;;;;;11.70;6.47;;;16.70;36.30;;;;;;5120833;28;20073;-46
2021/12/21 03:54:37;;;;;;;11.73;6.25;;;16.80;36.10;;;;;;5120634;28;20073;-45
2021/12/21 03:57:04;;;;;;;13.65;6.38;;;16.90;35.80;;;;;;5120168;28;20044;-50
2021/12/21 03:59:30;;;;;;;9.70;5.35;;;17.00;35.70;;;;;;5120131;28;20012;-46
2021/12/21 04:01:56;;;;;;;11.85;6.03;;;17.00;35.60;;;;;;5120573;28;20052;-49
2021/12/21 04:04:23;;;;;;;11.30;5.95;;;17.10;35.50;;;;;;5101211;28;20027;-48
2021/12/21 04:06:49;;;;;;;10.10;5.53;;;17.10;35.40;;;;;;5119399;28;20371;-49
2021/12/21 04:09:16;;;;;;;10.38;6.15;;;17.10;35.20;;;;;;5119778;28;20011;-46
2021/12/21 04:11:44;;;;;;;9.48;5.65;;;17.20;35.20;;;;;;5119118;28;20025;-50
2021/12/21 04:14:10;;;;;;;10.32;6.05;;;17.30;35.00;;;;;;5119492;28;20016;-46
2021/12/21 04:16:36;;;;;;;10.00;5.72;;;17.30;34.80;;;;;;5119116;28;20054;-49
2021/12/21 04:19:02;;;;;;;10.25;5.70;;;17.40;34.70;;;;;;5118556;28;20058;-50
2021/12/21 04:21:28;;;;;;;9.95;5.70;;;17.40;34.60;;;;;;5099843;28;20070;-45
2021/12/21 04:23:54;;;;;;;12.13;5.82;;;17.50;34.50;;;;;;5118159;28;20029;-44
2021/12/21 04:26:20;;;;;;;11.00;5.50;;;17.50;34.40;;;;;;5117476;28;20110;-44
2021/12/21 04:28:47;;;;;;;11.38;5.90;;;17.50;34.30;;;;;;5117383;28;20020;-50
2021/12/21 04:31:13;;;;;;;10.43;6.05;;;17.60;34.30;;;;;;5117158;28;20042;-51
2021/12/21 04:33:42;;;;;;;9.23;5.65;;;17.60;34.10;;;;;;5117095;28;20015;-43
2021/12/21 04:36:08;;;;;;;11.27;5.70;;;17.70;34.00;;;;;;5116699;28;20474;-44
2021/12/21 04:38:37;;;;;;;11.15;5.85;;;17.80;33.90;;;;;;5098103;28;20020;-44
2021/12/21 04:41:17;;;;;;;8.43;5.47;;;17.90;33.80;;;;;;5116900;28;20110;-48
2021/12/21 04:43:43;;;;;;;11.70;5.80;;;17.90;33.70;;;;;;5117270;28;20024;-44
2021/12/21 04:46:09;;;;;;;9.63;5.97;;;18.00;33.60;;;;;;5116187;28;20034;-46
2021/12/21 04:48:53;;;;;;;10.90;5.70;;;17.90;33.50;;;;;;5116362;28;20026;-49
2021/12/21 04:51:19;;;;;;;9.65;5.85;;;18.10;33.40;;;;;;5115819;28;20462;-46
2021/12/21 04:53:45;;;;;;;8.70;5.10;;;18.10;33.20;;;;;;5098236;28;20095;-44
2021/12/21 04:56:11;;;;;;;11.75;5.70;;;18.20;33.70;;;;;;5115999;28;20073;-46
2021/12/21 04:58:37;;;;;;;9.90;5.60;;;18.20;32.90;;;;;;5115834;28;20085;-44
2021/12/21 05:01:04;;;;;;;10.50;6.05;;;18.30;32.90;;;;;;5116133;28;20019;-46
2021/12/21 05:03:30;;;;;;;9.25;5.57;;;18.30;32.70;;;;;;5097132;28;20102;-49
2021/12/21 05:05:55;;;;;;;8.57;5.50;;;18.40;32.70;;;;;;5115805;28;20052;-43
2021/12/21 05:08:29;;;;;;;8.13;5.10;;;18.50;32.60;;;;;;5116005;28;20487;-49
2021/12/21 05:10:59;;;;;;;7.65;5.00;;;18.40;32.50;;;;;;5115847;28;20026;-47
2021/12/21 05:13:27;;;;;;;8.52;5.13;;;18.50;32.30;;;;;;5115562;28;20086;-44
2021/12/21 05:15:58;;;;;;;8.57;5.22;;;18.60;32.30;;;;;;5114785;28;20081;-47
2021/12/21 05:18:23;;;;;;;8.35;5.00;;;18.60;32.20;;;;;;5115101;28;20016;-46
2021/12/21 05:20:49;;;;;;;9.70;5.20;;;18.70;32.10;;;;;;5096871;28;20027;-46
2021/12/21 05:23:15;;;;;;;7.70;4.85;;;18.70;32.10;;;;;;5115369;28;20007;-45
2021/12/21 05:25:41;;;;;;;8.15;5.38;;;18.80;32.00;;;;;;5114699;28;20027;-45
2021/12/21 05:28:08;;;;;;;11.23;5.70;;;18.80;31.90;;;;;;5115375;28;20011;-44
2021/12/21 05:30:34;;;;;;;9.07;5.20;;;18.80;31.80;;;;;;5114823;28;20470;-47
2021/12/21 05:33:00;;;;;;;8.27;5.10;;;18.90;31.70;;;;;;5096391;28;20020;-44
2021/12/21 05:35:26;;;;;;;8.68;5.55;;;18.90;31.60;;;;;;5096854;28;20011;-46
2021/12/21 05:37:56;;;;;;;9.95;5.38;;;18.90;31.60;;;;;;5115234;28;20026;-46
2021/12/21 05:40:29;;;;;;;;;;;19.00;31.50;;;;;;5114513;28;20024;-44
2021/12/21 05:42:56;;;;;;;8.50;4.82;;;19.00;31.30;;;;;;5114379;28;19995;-47
2021/12/21 05:45:22;;;;;;;9.68;5.32;;;19.10;31.30;;;;;;5114456;28;20039;-44
2021/12/21 05:47:47;;;;;;;9.77;5.47;;;19.10;31.20;;;;;;5114801;28;20020;-44
2021/12/21 05:50:16;;;;;;;8.65;5.28;;;19.20;31.10;;;;;;5115382;28;20016;-46
2021/12/21 05:52:45;;;;;;;9.60;5.28;;;19.20;31.00;;;;;;5097229;28;20012;-48
2021/12/21 05:55:11;;;;;;;8.95;5.03;;;19.30;31.00;;;;;;5115642;28;20016;-43
2021/12/21 05:57:38;;;;;;;8.30;5.05;;;19.30;31.00;;;;;;5115192;28;20055;-45
2021/12/21 06:00:06;;;;;;;9.25;5.03;;;19.30;30.90;;;;;;5114814;28;20066;-46
2021/12/21 06:02:32;;;;;;;8.77;5.10;;;19.30;30.80;;;;;;5114592;28;20012;-43
2021/12/21 06:04:58;;;;;;;8.73;5.10;;;19.30;30.90;;;;;;5114064;28;20043;-46
2021/12/21 06:07:24;;;;;;;8.90;5.05;;;19.30;30.80;;;;;;5096486;28;20023;-45
2021/12/21 06:09:50;;;;;;;9.80;5.45;;;19.30;30.80;;;;;;5117232;28;20004;-46
2021/12/21 06:25:53;;;;;;;9.10;5.32;;;19.50;30.30;;;;;;5102579;28;20096;-47
2021/12/21 06:28:19;;;;;;;8.43;4.97;;;19.50;30.20;;;;;;5118177;28;20024;-47
2021/12/21 06:30:45;;;;;;;9.27;4.80;;;19.50;30.10;;;;;;5118193;28;20027;-45
2021/12/21 06:33:11;;;;;;;9.27;5.20;;;19.50;30.20;;;;;;5117637;28;20015;-48
2021/12/21 06:35:37;;;;;;;7.65;4.80;;;19.50;30.20;;;;;;5118259;28;20020;-46
2021/12/21 06:38:04;;;;;;;7.57;4.88;;;19.50;30.10;;;;;;5117973;28;20096;-48
2021/12/21 06:40:30;;;;;;;8.73;4.93;;;19.50;30.60;;;;;;5118028;28;20416;-42
2021/12/21 06:42:59;;;;;;;7.93;4.55;;;19.60;30.00;;;;;;5118041;28;20089;-46
2021/12/21 06:45:52;;;;;;;8.93;5.07;;;19.60;30.00;;;;;;5119001;28;20031;-46
2021/12/21 06:51:58;;;;;;;8.27;5.10;;;19.60;30.00;;;;;;5117881;28;20534;-44
2021/12/21 06:53:54;;;;;;;10.00;4.93;;;19.70;29.90;;;;;;5100127;28;20106;-46
2021/12/21 06:56:21;;;;;;;8.45;5.32;;;19.70;29.90;;;;;;5117958;28;20026;-48
2021/12/21 06:58:49;;;;;;;8.85;4.70;;;19.70;29.90;;;;;;5117402;28;20080;-47
2021/12/21 07:01:16;;;;;;;7.55;4.68;;;19.80;29.80;;;;;;5117380;28;20012;-45
2021/12/21 07:03:42;;;;;;;8.68;5.10;;;19.80;29.80;;;;;;5117254;28;20058;-45
2021/12/21 07:06:08;;;;;;;9.98;4.82;;;19.80;29.70;;;;;;5118089;28;20027;-45
2021/12/21 07:08:45;;;;;;;8.23;4.88;;;19.70;29.70;;;;;;5117126;28;20047;-48
2021/12/21 07:11:19;;;;;;;6.90;4.82;;;19.70;29.70;;;;;;5117290;28;20012;-43
2021/12/21 07:19:14;;;;;;;9.85;4.90;;;19.70;29.70;;;;;;5100156;28;20022;-49
2021/12/21 07:21:40;;;;;;;8.45;5.13;;;19.70;30.00;;;;;;5096029;28;20027;-46
2021/12/21 07:24:06;;;;;;;6.95;4.88;;;19.80;29.60;;;;;;5114591;28;20419;-46
2021/12/21 07:26:32;;;;;;;10.55;5.15;;;19.80;29.60;;;;;;5116050;28;20032;-47
2021/12/21 07:28:59;;;;;;;10.57;4.78;;;19.80;29.50;;;;;;5116919;28;20012;-37
2021/12/21 07:31:24;;;;;;;8.55;4.80;;;19.80;29.50;;;;;;5117679;28;20035;-38
2021/12/21 07:33:51;;;;;;;9.60;5.20;;;19.90;29.50;;;;;;5098458;28;20390;-38
2021/12/21 07:36:16;;;;;;;9.25;5.15;;;19.90;29.50;;;;;;5116992;28;20027;-37
2021/12/21 07:38:42;;;;;;;8.45;4.75;;;20.00;29.60;;;;;;5117032;28;20023;-37
2021/12/21 07:41:08;;;;;;;9.75;4.63;;;20.00;29.50;;;;;;5098725;28;20026;-38
2021/12/21 07:43:34;;;;;;;9.77;4.72;;;20.00;29.50;;;;;;5117598;28;20051;-42
2021/12/21 07:45:59;;;;;;;8.02;4.47;;;20.00;29.60;;;;;;5098953;28;20118;-38
2021/12/21 07:48:25;;;;;;;8.82;4.78;;;20.00;29.60;;;;;;5116499;28;20091;-38
2021/12/21 07:50:51;;;;;;;7.63;4.60;;;19.90;29.60;;;;;;5117116;28;20022;-37
2021/12/21 07:53:18;;;;;;;8.10;4.57;;;19.90;29.70;;;;;;5116393;28;20047;-38
2021/12/21 07:55:44;;;;;;;8.82;5.30;;;19.90;29.70;;;;;;5117541;28;20027;-39
2021/12/21 07:58:11;;;;;;;6.80;4.50;;;19.90;29.60;;;;;;5116830;28;20027;-37
2021/12/21 08:00:36;;;;;;;8.93;4.80;;;20.00;29.70;;;;;;5116033;28;20096;-38
2021/12/21 08:03:03;;;;;;;7.57;4.30;;;20.00;29.70;;;;;;5098522;28;20028;-39
2021/12/21 08:05:32;;;;;;;8.45;4.70;;;20.00;29.60;;;;;;5116026;28;20107;-38
2021/12/21 08:08:09;;;;;;;7.80;4.63;;;20.00;29.60;;;;;;5116467;28;20107;-40
2021/12/21 08:10:44;;;;;;;7.47;4.75;;;20.10;29.60;;;;;;5116562;28;20019;-37
2021/12/21 08:13:10;;;;;;;10.15;4.55;;;20.10;29.60;;;;;;5116668;28;20478;-39
2021/12/21 08:15:36;;;;;;;9.68;4.85;;;20.10;29.50;;;;;;5098589;28;20041;-40
2021/12/21 08:18:03;;;;;;;9.98;4.57;;;20.10;29.50;;;;;;5116774;28;20512;-39
2021/12/21 08:20:29;;;;;;;10.10;4.78;;;20.20;29.50;;;;;;5098939;28;20023;-39
2021/12/21 08:22:55;;;;;;;8.82;4.95;;;20.20;29.40;;;;;;5117291;28;20012;-39
2021/12/21 08:25:24;;;;;;;9.38;4.70;;;20.30;29.40;;;;;;5116762;28;20035;-38
2021/12/21 08:27:51;;;;;;;9.23;4.57;;;20.30;29.30;;;;;;5098316;28;20374;-38
2021/12/21 08:30:17;;;;;;;8.38;4.72;;;20.40;29.20;;;;;;5116177;28;20023;-38
2021/12/21 08:32:43;;;;;;;9.65;4.75;;;20.50;29.20;;;;;;5115171;28;20019;-38
2021/12/21 08:35:09;;;;;;;8.98;5.20;;;20.50;29.20;;;;;;5096547;28;20030;-37
2021/12/21 08:37:36;;;;;;;8.70;4.70;;;20.50;29.10;;;;;;5116185;28;20030;-38
2021/12/21 08:40:03;;;;;;;10.27;4.80;;;20.60;29.10;;;;;;5114911;28;20064;-37
2021/12/21 08:42:28;;;;;;;7.78;4.72;;;20.70;29.00;;;;;;5115582;28;20023;-37
2021/12/21 08:44:56;;;;;;;8.73;4.70;;;20.80;28.90;;;;;;5098857;28;20031;-39
2021/12/21 08:47:22;;;;;;;7.35;4.60;;;20.80;28.80;;;;;;5098194;28;20497;-37
2021/12/21 08:49:49;;;;;;;9.70;4.88;;;20.90;28.80;;;;;;5097212;28;20019;-36
2021/12/21 08:52:15;;;;;;;9.98;5.03;;;20.90;28.60;;;;;;5115128;28;20014;-38
2021/12/21 08:54:42;;;;;;;7.90;4.72;;;21.00;28.50;;;;;;5096662;28;20012;-39
2021/12/21 08:57:08;;;;;;;8.20;5.07;;;21.10;28.40;;;;;;5115926;28;20016;-37
2021/12/21 08:59:36;;;;;;;9.82;5.05;;;21.20;28.30;;;;;;5115882;28;20011;-37
2021/12/21 09:02:03;;;;;;;10.30;4.72;;;21.30;28.60;;;;;;5115396;28;20072;-39
2021/12/21 09:04:29;;;;;;;7.82;4.93;;;21.30;28.10;;;;;;5097343;28;20068;-37
2021/12/21 09:06:55;;;;;;;11.52;4.78;;;21.40;28.00;;;;;;5114996;28;20027;-38
2021/12/21 09:09:20;;;;;;;9.63;4.90;;;21.50;27.90;;;;;;5114279;28;20011;-37
2021/12/21 09:11:49;;;;;;;8.57;4.85;;;21.60;27.80;;;;;;5115237;28;20016;-37
2021/12/21 09:14:17;;;;;;;8.23;4.95;;;21.70;27.70;;;;;;5097289;28;20012;-36
2021/12/21 09:16:43;;;;;;;9.50;4.93;;;21.80;27.60;;;;;;5096698;28;20044;-37
2021/12/21 09:19:08;;;;;;;10.63;5.43;;;21.80;27.50;;;;;;5096312;28;20504;-37
2021/12/21 09:21:34;;;;;;;7.07;4.32;;;21.90;27.40;;;;;;5115084;28;20462;-36
2021/12/21 09:24:00;;;;;;;6.95;4.80;;;22.00;27.30;;;;;;5115380;28;20028;-36
2021/12/21 09:26:27;;;;;;;9.70;5.10;;;22.10;27.20;;;;;;5114501;28;20020;-36
2021/12/21 09:28:53;;;;;;;9.30;4.93;;;22.10;27.10;;;;;;5097086;28;20023;-39
2021/12/21 09:31:20;;;;;;;7.88;4.60;;;22.10;27.00;;;;;;5116047;28;20019;-38
2021/12/21 09:33:45;;;;;;;8.65;4.80;;;22.20;27.00;;;;;;5115464;28;20018;-39
2021/12/21 09:36:11;;;;;;;8.23;4.63;;;22.30;26.90;;;;;;5097066;28;20521;-38
2021/12/21 09:38:37;;;;;;;8.90;4.65;;;22.30;26.80;;;;;;5096627;28;20378;-38
2021/12/21 09:41:04;;;;;;;8.77;4.63;;;22.40;26.80;;;;;;5096372;28;20035;-37
2021/12/21 09:43:30;;;;;;;9.20;4.72;;;22.50;26.80;;;;;;5113955;28;20008;-38
2021/12/21 09:45:56;;;;;;;8.80;4.93;;;22.50;26.70;;;;;;5096848;28;20039;-37
2021/12/21 09:48:25;;;;;;;8.05;4.60;;;22.50;26.60;;;;;;5096474;28;20020;-38
2021/12/21 09:50:50;;;;;;;7.75;4.35;;;22.60;26.50;;;;;;5113692;28;20008;-37
2021/12/21 09:53:16;;;;;;;7.90;4.85;;;22.70;26.50;;;;;;5113980;28;20331;-37
2021/12/21 09:55:42;;;;;;;7.40;4.60;;;22.70;26.50;;;;;;5114347;28;20103;-38
2021/12/21 09:58:08;;;;;;;8.90;4.60;;;22.70;26.40;;;;;;5096057;28;20399;-41
2021/12/21 10:00:34;;;;;;;12.52;5.20;;;22.80;26.40;;;;;;5114206;28;20470;-36
2021/12/21 10:03:05;;;;;;;8.57;4.72;;;22.80;26.20;;;;;;5079763;28;20069;-36
2021/12/21 10:05:36;;;;;;;10.88;5.03;;;22.90;26.70;;;;;;5113140;28;20027;-38
2021/12/21 10:08:11;;;;;;;8.45;4.55;;;22.90;26.20;;;;;;5114529;28;20170;-37
2021/12/21 10:10:42;;;;;;;6.72;4.38;;;22.90;26.20;;;;;;5114490;28;20565;-37
2021/12/21 10:13:09;;;;;;;;;;;23.00;26.10;;;;;;5115065;28;20011;-37
2021/12/21 10:15:40;;;;;;;8.10;4.78;;;23.00;26.10;;;;;;5114345;28;19943;-40
2021/12/21 10:18:06;;;;;;;10.73;5.15;;;23.00;26.00;;;;;;5096553;28;20027;-40
2021/12/21 10:20:43;;;;;;;8.02;4.70;;;23.10;26.00;;;;;;5114520;28;20038;-40
2021/12/21 10:23:10;;;;;;;9.85;4.63;;;23.00;26.00;;;;;;5115859;28;20026;-40
2021/12/21 10:25:40;;;;;;;9.60;4.50;;;23.00;26.00;;;;;;5114763;28;20028;-40
2021/12/21 10:28:06;;;;;;;11.88;4.50;;;23.10;26.00;;;;;;5097225;28;20008;-39
2021/12/21 10:30:32;;;;;;;8.88;4.80;;;23.10;26.00;;;;;;5115468;28;20023;-41
2021/12/21 10:33:00;;;;;;;7.03;4.30;;;23.10;25.90;;;;;;5079667;28;20027;-40
2021/12/21 10:35:30;;;;;;;7.45;4.88;;;23.20;25.90;;;;;;5097779;28;20024;-40
2021/12/21 10:37:56;;;;;;;10.43;4.85;;;23.10;25.90;;;;;;5115229;28;20096;-39
2021/12/21 10:40:25;;;;;;;7.45;4.40;;;23.10;25.90;;;;;;5114704;28;20020;-40
2021/12/21 10:42:52;;;;;;;9.07;4.97;;;23.10;25.80;;;;;;5114879;28;20026;-39
2021/12/21 10:45:23;;;;;;;9.30;4.35;;;23.20;25.80;;;;;;5114473;28;20026;-39
2021/12/21 10:47:50;;;;;;;8.77;4.85;;;23.20;25.80;;;;;;5097032;28;20008;-40
2021/12/21 10:50:16;;;;;;;7.38;4.15;;;23.20;25.80;;;;;;5115252;28;20012;-41
2021/12/21 10:52:53;;;;;;;9.63;4.53;;;23.20;25.70;;;;;;5096970;28;20037;-40
2021/12/21 10:55:30;;;;;;;9.82;4.47;;;23.20;25.80;;;;;;5116934;28;20022;-39
2021/12/21 10:58:07;;;;;;;7.38;4.10;;;23.10;25.80;;;;;;5119209;28;20019;-41
2021/12/21 11:00:35;;;;;;;7.32;4.28;;;23.10;25.80;;;;;;5119577;28;20072;-40
2021/12/21 11:03:01;;;;;;;6.85;4.43;;;23.10;25.90;;;;;;5118400;28;20024;-39
2021/12/21 11:05:26;;;;;;;8.77;4.50;;;23.10;25.90;;;;;;5100518;28;20028;-39
2021/12/21 11:08:00;;;;;;;7.60;4.30;;;23.10;25.90;;;;;;5102032;28;20082;-40
2021/12/21 11:10:30;;;;;;;6.68;4.60;;;23.10;25.90;;;;;;5119679;28;20008;-40
2021/12/21 11:12:59;;;;;;;8.63;4.30;;;23.10;25.90;;;;;;5118736;28;20011;-39
2021/12/21 11:15:29;;;;;;;7.80;4.50;;;23.10;25.90;;;;;;5119502;28;20027;-39
2021/12/21 11:17:58;;;;;;;7.78;4.40;;;23.10;25.80;;;;;;5118940;28;20108;-38
2021/12/21 11:20:24;;;;;;;6.68;3.90;;;23.10;26.30;;;;;;5118780;28;20023;-39
2021/12/21 11:22:51;;;;;;;7.57;4.47;;;23.10;25.90;;;;;;5118774;28;20050;-38
2021/12/21 11:25:17;;;;;;;9.98;4.80;;;23.10;25.80;;;;;;5119771;28;20016;-40
2021/12/21 11:27:43;;;;;;;8.23;4.35;;;23.10;25.90;;;;;;5101012;28;20023;-39
2021/12/21 11:30:20;;;;;;;8.45;4.65;;;23.00;25.90;;;;;;5121291;28;20019;-39
2021/12/21 11:32:49;;;;;;;8.43;4.50;;;23.00;25.90;;;;;;5120728;28;20008;-39
2021/12/21 11:37:50;;;;;;;8.85;4.85;;;23.00;25.90;;;;;;5120373;28;20020;-38
2021/12/21 11:40:19;;;;;;;8.70;5.00;;;23.00;26.00;;;;;;5102623;28;20027;-41
2021/12/21 11:42:51;;;;;;;8.38;4.35;;;23.00;26.00;;;;;;5120716;28;20047;-39
2021/12/21 11:45:47;;;;;;;6.68;4.53;;;23.00;26.00;;;;;;5120896;28;20019;-39
2021/12/21 11:48:33;;;;;;;9.20;4.60;;;23.00;26.00;;;;;;5101379;28;20019;-39
2021/12/21 11:51:08;;;;;;;8.82;4.30;;;22.90;26.10;;;;;;5100267;28;20031;-42
2021/12/21 11:53:33;;;;;;;8.32;4.63;;;22.80;26.10;;;;;;5118377;28;20014;-39
2021/12/21 11:55:59;;;;;;;9.35;4.57;;;22.80;26.10;;;;;;5118562;28;20474;-39
2021/12/21 11:58:28;;;;;;;7.95;4.30;;;22.70;26.10;;;;;;5119275;28;20086;-39
2021/12/21 12:01:22;;;;;;;7.63;4.55;;;22.70;26.20;;;;;;5100604;28;20478;-42
2021/12/21 12:03:57;;;;;;;8.13;4.82;;;22.70;26.20;;;;;;5119213;28;20087;-39
2021/12/21 12:06:23;;;;;;;6.78;4.15;;;22.70;26.20;;;;;;5118089;28;20031;-38
2021/12/21 12:08:54;;;;;;;7.88;4.50;;;22.70;26.20;;;;;;5119500;28;20493;-38
2021/12/21 12:11:35;;;;;;;7.80;4.65;;;22.60;26.20;;;;;;5119575;28;20090;-40
2021/12/21 12:14:03;;;;;;;8.82;4.72;;;22.60;26.20;;;;;;5119652;28;20434;-42
2021/12/21 12:16:39;;;;;;;10.77;4.40;;;22.60;26.70;;;;;;5120498;28;20078;-39
2021/12/21 12:19:16;;;;;;;7.57;4.68;;;22.50;26.20;;;;;;5119230;28;20018;-41
2021/12/21 12:22:07;;;;;;;8.55;4.55;;;22.50;26.30;;;;;;5119225;28;20027;-39
2021/12/21 12:24:37;;;;;;;6.78;4.28;;;22.50;26.30;;;;;;5118556;28;20015;-38
2021/12/21 12:27:09;;;;;;;8.52;4.38;;;22.50;26.30;;;;;;5117642;28;20107;-38
2021/12/21 12:29:49;;;;;;;9.88;4.50;;;22.50;26.30;;;;;;5117160;28;20015;-39
2021/12/21 12:32:15;;;;;;;8.65;4.55;;;22.50;26.30;;;;;;5117051;28;20024;-39
2021/12/21 12:34:42;;;;;;;6.82;4.18;;;22.50;26.30;;;;;;5117245;28;20004;-39
2021/12/21 12:37:22;;;;;;;8.10;4.50;;;22.50;26.30;;;;;;5117826;28;20493;-42
2021/12/21 12:39:53;;;;;;;7.07;4.13;;;22.40;26.30;;;;;;5099439;28;20019;-39
2021/12/21 12:42:24;;;;;;;7.10;4.30;;;22.40;26.30;;;;;;5082773;28;20020;-39
2021/12/21 12:45:02;;;;;;;7.82;4.07;;;22.40;26.30;;;;;;5117081;28;20008;-39
2021/12/21 12:47:27;;;;;;;6.97;4.32;;;22.40;26.30;;;;;;5116917;28;20086;-39
2021/12/21 12:49:56;;;;;;;9.43;4.20;;;22.40;26.30;;;;;;5099164;28;20012;-39
2021/12/21 12:52:28;;;;;;;8.32;4.05;;;22.40;26.20;;;;;;5117291;28;20023;-39
2021/12/21 12:55:01;;;;;;;8.57;4.10;;;22.40;26.20;;;;;;5117060;28;20470;-38
2021/12/21 12:57:37;;;;;;;9.00;4.32;;;22.40;26.10;;;;;;5117791;28;20087;-39
2021/12/21 13:00:24;;;;;;;9.13;4.00;;;22.40;26.10;;;;;;5117372;28;20014;-39
2021/12/21 13:03:09;;;;;;;5.80;3.70;;;22.40;26.20;;;;;;5118057;28;20040;-40
2021/12/21 13:05:51;;;;;;;8.38;4.00;;;22.40;26.20;;;;;;5118254;28;20037;-40
2021/12/21 13:08:17;;;;;;;7.20;4.18;;;22.40;26.20;;;;;;5120045;28;20492;-38
2021/12/21 13:10:49;;;;;;;7.40;4.00;;;22.30;26.20;;;;;;5119868;28;20099;-39
2021/12/21 13:13:15;;;;;;;10.45;4.03;;;22.40;26.30;;;;;;5119880;28;20004;-39
2021/12/21 13:15:45;;;;;;;7.45;3.90;;;22.40;26.20;;;;;;5101469;28;20089;-39
2021/12/21 13:18:13;;;;;;;5.90;3.90;;;22.40;26.20;;;;;;5099780;28;20030;-39
2021/12/21 13:20:41;;;;;;;7.82;4.13;;;22.40;26.20;;;;;;5118810;28;20012;-39
2021/12/21 13:23:41;;;;;;;7.65;4.50;;;22.40;26.20;;;;;;5117298;28;20072;-39
2021/12/21 13:26:10;;;;;;;8.57;4.18;;;22.30;26.20;;;;;;5117475;28;20066;-38
2021/12/21 13:28:43;;;;;;;6.85;3.72;;;22.30;26.30;;;;;;5081849;28;20019;-41
2021/12/21 13:31:09;;;;;;;7.55;3.65;;;22.30;26.30;;;;;;5117861;28;20011;-39
2021/12/21 13:33:39;;;;;;;7.38;3.50;;;22.20;26.30;;;;;;5082619;28;20478;-39
2021/12/21 13:36:06;;;;;;;8.13;4.03;;;22.30;26.30;;;;;;5118057;28;20020;-39
2021/12/21 13:38:32;;;;;;;7.45;3.88;;;22.20;26.20;;;;;;5118053;28;20029;-39
2021/12/21 13:41:09;;;;;;;6.38;3.92;;;22.30;26.30;;;;;;5099573;28;20020;-39
2021/12/21 13:43:36;;;;;;;6.38;3.58;;;22.30;26.20;;;;;;5100099;28;20076;-39
2021/12/21 13:46:06;;;;;;;7.25;3.80;;;22.30;26.60;;;;;;5117895;28;20024;-40
2021/12/21 13:48:33;;;;;;;7.22;3.55;;;22.30;26.20;;;;;;5117904;28;20016;-42
2021/12/21 13:51:12;;;;;;;7.47;3.55;;;22.30;26.20;;;;;;5117747;28;20012;-38
2021/12/21 13:54:08;;;;;;;9.30;3.88;;;22.20;26.20;;;;;;5117527;28;20008;-41
2021/12/21 13:56:33;;;;;;;5.35;3.50;;;22.20;26.20;;;;;;5100036;28;20023;-40
2021/12/21 13:59:00;;;;;;;6.60;3.70;;;22.20;26.20;;;;;;5081550;28;20020;-39
2021/12/21 14:01:30;;;;;;;6.95;3.63;;;22.20;26.20;;;;;;5117298;28;20035;-40
2021/12/21 14:03:59;;;;;;;5.63;3.53;;;22.30;26.20;;;;;;5117636;28;20012;-39
2021/12/21 14:06:26;;;;;;;7.20;3.15;;;22.30;26.20;;;;;;5117216;28;20103;-38